Pineville, MO (64856)

10:12 AM CST on December 08, 2016 (GMT -0600)
Brush Creek | | Change Station

Elev 1056 ft 36.51 °N, 94.34 °W | Updated 5 seconds ago

Partly Cloudy
Partly Cloudy
23.0 °F
Feels Like 23 °F
N
2.9
Wind Variable Wind from NE
Gusts 4.9 mph

Today
High -- | Low -- °F
--% Chance of Precip.
Yesterday
High -- | Low -- °F
Precip. -- in
Pressure 30.63 in
Visibility 10.0 miles
Clouds Clear
Windchill 23 °F
Dew Point 5 °F
Humidity 45%
Rainfall 0.00 in
Snow Depth Not available.
7:17 AM 5:01 PM
Waxing Gibbous, 64% visible
METAR KVBT 081555Z AUTO 33007KT 10SM CLR M05/M14 A3063 RMK AO1
Pressure 30.63 in
Visibility 10.0 miles
Clouds Clear
Windchill 23 °F
Dew Point 5 °F
Humidity 45%
Rainfall 0.00 in
Snow Depth Not available.
7:17 AM 5:01 PM
Waxing Gibbous, 64% visible
METAR KVBT 081555Z AUTO 33007KT 10SM CLR M05/M14 A3063 RMK AO1

10-Day Weather Forecast

Almanac

Astronomy

Dec. 08, 2016 Rise Set
Actual Time
Civil Twilight
Nautical Twilight
Astronomical Twilight
Moon
Length of Visible Light
Length of Day
Tomorrow will be .
, % of the Moon is Illuminated

Today's Extremes

State Highs State Lows

Community

WunderPhotos

Upload Photos

1,956,274 photos uploaded!

WunderBlog® & News

Nearby

Air Quality

  Air Quality AQ Index Pollutant
Not available.

Snow Depth

Station Depth Elevation

Earthquake Activity

City Distance Mag. Time & Date
Minimum magnitude displayed is 2.5.

Coastal Water Temperatures

Place Temperature

Stations

Nearby Weather Stations

Station Location Temp. Windchill Dew Point Humidity Wind Precip. Elev Updated Type
                   

Watches & Warnings

There are currently no watches in effect.